sensor_id;sensor_type;location;lat;lon;timestamp;pressure;altitude;pressure_sealevel;temperature;humidity
74466;BME280;62916;50.044;15.938;2023-07-29T00:00:09;98550.63;;;25.87;47.65
74466;BME280;62916;50.044;15.938;2023-07-29T00:02:43;98554.63;;;25.85;47.59
74466;BME280;62916;50.044;15.938;2023-07-29T00:05:15;98556.19;;;25.81;47.39
74466;BME280;62916;50.044;15.938;2023-07-29T00:07:46;98556.89;;;25.78;47.60
74466;BME280;62916;50.044;15.938;2023-07-29T00:10:17;98561.63;;;25.76;47.71
74466;BME280;62916;50.044;15.938;2023-07-29T00:12:48;98561.08;;;25.72;47.62
74466;BME280;62916;50.044;15.938;2023-07-29T00:15:19;98560.17;;;25.69;47.72
74466;BME280;62916;50.044;15.938;2023-07-29T00:17:50;98556.30;;;25.66;47.46
74466;BME280;62916;50.044;15.938;2023-07-29T00:20:22;98558.70;;;25.65;47.86
74466;BME280;62916;50.044;15.938;2023-07-29T00:22:53;98561.75;;;25.63;47.66
74466;BME280;62916;50.044;15.938;2023-07-29T00:25:24;98562.14;;;25.62;47.74
74466;BME280;62916;50.044;15.938;2023-07-29T00:27:55;98559.06;;;25.62;47.74
74466;BME280;62916;50.044;15.938;2023-07-29T00:30:27;98556.21;;;25.60;47.88
74466;BME280;62916;50.044;15.938;2023-07-29T00:32:58;98551.63;;;25.59;47.83
74466;BME280;62916;50.044;15.938;2023-07-29T00:35:29;98552.07;;;25.57;47.98
74466;BME280;62916;50.044;15.938;2023-07-29T00:38:00;98551.25;;;25.57;47.89
74466;BME280;62916;50.044;15.938;2023-07-29T00:40:32;98549.10;;;25.56;47.75
74466;BME280;62916;50.044;15.938;2023-07-29T00:43:05;98542.41;;;25.54;47.92
74466;BME280;62916;50.044;15.938;2023-07-29T00:45:36;98543.33;;;25.51;47.92
74466;BME280;62916;50.044;15.938;2023-07-29T00:48:07;98535.64;;;25.49;48.01
74466;BME280;62916;50.044;15.938;2023-07-29T00:50:39;98535.68;;;25.48;47.86
74466;BME280;62916;50.044;15.938;2023-07-29T00:53:10;98528.67;;;25.47;47.80
74466;BME280;62916;50.044;15.938;2023-07-29T00:55:42;98525.80;;;25.46;48.13
74466;BME280;62916;50.044;15.938;2023-07-29T00:58:13;98519.40;;;25.42;48.10
74466;BME280;62916;50.044;15.938;2023-07-29T01:00:44;98523.40;;;25.43;48.07
74466;BME280;62916;50.044;15.938;2023-07-29T01:03:15;98526.03;;;25.41;48.00
74466;BME280;62916;50.044;15.938;2023-07-29T01:05:54;98526.06;;;25.39;47.91
74466;BME280;62916;50.044;15.938;2023-07-29T01:08:33;98532.50;;;25.38;48.06
74466;BME280;62916;50.044;15.938;2023-07-29T01:11:20;98530.34;;;25.36;48.09
74466;BME280;62916;50.044;15.938;2023-07-29T01:14:01;98526.27;;;25.31;48.06
74466;BME280;62916;50.044;15.938;2023-07-29T01:16:41;98529.23;;;25.33;48.05
74466;BME280;62916;50.044;15.938;2023-07-29T01:19:20;98529.84;;;25.31;47.78
74466;BME280;62916;50.044;15.938;2023-07-29T01:21:57;98526.41;;;25.27;47.96
74466;BME280;62916;50.044;15.938;2023-07-29T01:24:29;98525.45;;;25.28;47.94
74466;BME280;62916;50.044;15.938;2023-07-29T01:26:59;98523.05;;;25.26;47.61
74466;BME280;62916;50.044;15.938;2023-07-29T01:29:31;98521.77;;;25.24;47.84
74466;BME280;62916;50.044;15.938;2023-07-29T01:32:06;98520.67;;;25.19;47.96
74466;BME280;62916;50.044;15.938;2023-07-29T01:34:44;98515.23;;;25.19;47.82
74466;BME280;62916;50.044;15.938;2023-07-29T01:37:22;98510.27;;;25.18;47.79
74466;BME280;62916;50.044;15.938;2023-07-29T01:39:58;98507.29;;;25.16;47.99
74466;BME280;62916;50.044;15.938;2023-07-29T01:42:31;98508.23;;;25.14;47.99
74466;BME280;62916;50.044;15.938;2023-07-29T01:45:02;98512.98;;;25.13;47.96
74466;BME280;62916;50.044;15.938;2023-07-29T01:47:33;98514.58;;;25.11;47.74
74466;BME280;62916;50.044;15.938;2023-07-29T01:50:05;98517.80;;;25.08;47.81
74466;BME280;62916;50.044;15.938;2023-07-29T01:52:38;98517.65;;;25.06;47.98
74466;BME280;62916;50.044;15.938;2023-07-29T01:55:10;98512.26;;;25.04;47.99
74466;BME280;62916;50.044;15.938;2023-07-29T01:57:40;98511.99;;;25.03;48.10
74466;BME280;62916;50.044;15.938;2023-07-29T02:00:13;98517.41;;;25.02;47.83
74466;BME280;62916;50.044;15.938;2023-07-29T02:02:44;98516.48;;;24.98;47.87
74466;BME280;62916;50.044;15.938;2023-07-29T02:05:15;98518.39;;;24.98;47.89
74466;BME280;62916;50.044;15.938;2023-07-29T02:07:46;98518.23;;;24.97;47.97
74466;BME280;62916;50.044;15.938;2023-07-29T02:10:17;98517.20;;;24.98;48.06
74466;BME280;62916;50.044;15.938;2023-07-29T02:12:47;98520.61;;;24.98;47.96
74466;BME280;62916;50.044;15.938;2023-07-29T02:15:18;98521.23;;;24.97;48.04
74466;BME280;62916;50.044;15.938;2023-07-29T02:17:51;98522.89;;;24.96;47.93
74466;BME280;62916;50.044;15.938;2023-07-29T02:20:23;98520.73;;;24.93;47.98
74466;BME280;62916;50.044;15.938;2023-07-29T02:22:53;98524.64;;;24.92;48.00
74466;BME280;62916;50.044;15.938;2023-07-29T02:25:24;98527.81;;;24.89;48.10
74466;BME280;62916;50.044;15.938;2023-07-29T02:27:55;98527.62;;;24.85;48.05
74466;BME280;62916;50.044;15.938;2023-07-29T02:30:26;98531.42;;;24.82;47.93
74466;BME280;62916;50.044;15.938;2023-07-29T02:32:57;98528.81;;;24.79;48.01
74466;BME280;62916;50.044;15.938;2023-07-29T02:35:29;98532.17;;;24.77;48.09
74466;BME280;62916;50.044;15.938;2023-07-29T02:38:00;98526.58;;;24.75;48.10
74466;BME280;62916;50.044;15.938;2023-07-29T02:40:30;98524.04;;;24.74;47.92
74466;BME280;62916;50.044;15.938;2023-07-29T02:43:01;98530.53;;;24.74;48.03
74466;BME280;62916;50.044;15.938;2023-07-29T02:45:32;98540.88;;;24.73;48.08
74466;BME280;62916;50.044;15.938;2023-07-29T02:48:03;98540.20;;;24.71;48.30
74466;BME280;62916;50.044;15.938;2023-07-29T02:50:35;98542.85;;;24.71;48.33
74466;BME280;62916;50.044;15.938;2023-07-29T02:53:06;98548.08;;;24.67;48.18
74466;BME280;62916;50.044;15.938;2023-07-29T02:55:37;98549.83;;;24.69;48.24
74466;BME280;62916;50.044;15.938;2023-07-29T02:58:09;98554.58;;;24.68;48.31
74466;BME280;62916;50.044;15.938;2023-07-29T03:00:40;98555.66;;;24.66;48.13
74466;BME280;62916;50.044;15.938;2023-07-29T03:03:13;98555.30;;;24.64;48.15
74466;BME280;62916;50.044;15.938;2023-07-29T03:05:43;98555.13;;;24.64;48.21
74466;BME280;62916;50.044;15.938;2023-07-29T03:08:14;98557.33;;;24.65;48.32
74466;BME280;62916;50.044;15.938;2023-07-29T03:10:45;98561.15;;;24.65;48.44
74466;BME280;62916;50.044;15.938;2023-07-29T03:13:15;98560.48;;;24.65;48.41
74466;BME280;62916;50.044;15.938;2023-07-29T03:15:47;98556.26;;;24.64;48.40
74466;BME280;62916;50.044;15.938;2023-07-29T03:18:18;98556.09;;;24.64;48.49
74466;BME280;62916;50.044;15.938;2023-07-29T03:20:50;98555.56;;;24.63;48.39
74466;BME280;62916;50.044;15.938;2023-07-29T03:23:20;98556.27;;;24.61;48.39
74466;BME280;62916;50.044;15.938;2023-07-29T03:25:51;98563.55;;;24.61;48.51
74466;BME280;62916;50.044;15.938;2023-07-29T03:28:26;98566.69;;;24.60;48.75
74466;BME280;62916;50.044;15.938;2023-07-29T03:30:58;98565.84;;;24.62;48.59
74466;BME280;62916;50.044;15.938;2023-07-29T03:33:29;98568.13;;;24.66;48.69
74466;BME280;62916;50.044;15.938;2023-07-29T03:36:00;98565.54;;;24.68;48.62
74466;BME280;62916;50.044;15.938;2023-07-29T03:38:31;98561.50;;;24.69;48.87
74466;BME280;62916;50.044;15.938;2023-07-29T03:41:04;98563.32;;;24.70;48.87
74466;BME280;62916;50.044;15.938;2023-07-29T03:43:35;98560.84;;;24.68;48.75
74466;BME280;62916;50.044;15.938;2023-07-29T03:46:07;98561.71;;;24.70;48.78
74466;BME280;62916;50.044;15.938;2023-07-29T03:48:43;98564.98;;;24.68;48.94
74466;BME280;62916;50.044;15.938;2023-07-29T03:51:14;98564.45;;;24.67;49.01
74466;BME280;62916;50.044;15.938;2023-07-29T03:53:45;98566.81;;;24.68;49.05
74466;BME280;62916;50.044;15.938;2023-07-29T03:56:18;98566.70;;;24.67;49.14
74466;BME280;62916;50.044;15.938;2023-07-29T03:58:49;98569.59;;;24.66;49.21
74466;BME280;62916;50.044;15.938;2023-07-29T04:01:19;98567.64;;;24.66;49.22
74466;BME280;62916;50.044;15.938;2023-07-29T04:03:50;98569.41;;;24.66;49.36
74466;BME280;62916;50.044;15.938;2023-07-29T04:06:21;98575.09;;;24.65;49.41
74466;BME280;62916;50.044;15.938;2023-07-29T04:08:53;98576.68;;;24.64;49.49
74466;BME280;62916;50.044;15.938;2023-07-29T04:11:24;98575.70;;;24.64;49.53
74466;BME280;62916;50.044;15.938;2023-07-29T04:13:55;98571.19;;;24.62;49.61
74466;BME280;62916;50.044;15.938;2023-07-29T04:16:26;98569.88;;;24.62;49.54
74466;BME280;62916;50.044;15.938;2023-07-29T04:18:58;98572.55;;;24.61;49.65
74466;BME280;62916;50.044;15.938;2023-07-29T04:21:29;98574.27;;;24.61;49.81
74466;BME280;62916;50.044;15.938;2023-07-29T04:23:59;98570.77;;;24.61;49.77
74466;BME280;62916;50.044;15.938;2023-07-29T04:26:30;98570.55;;;24.59;49.79
74466;BME280;62916;50.044;15.938;2023-07-29T04:29:01;98573.43;;;24.58;49.81
74466;BME280;62916;50.044;15.938;2023-07-29T04:31:32;98579.34;;;24.58;49.88
74466;BME280;62916;50.044;15.938;2023-07-29T04:34:04;98581.75;;;24.57;50.00
74466;BME280;62916;50.044;15.938;2023-07-29T04:36:35;98585.65;;;24.57;50.00
74466;BME280;62916;50.044;15.938;2023-07-29T04:39:06;98578.75;;;24.57;50.10
74466;BME280;62916;50.044;15.938;2023-07-29T04:41:38;98581.52;;;24.57;50.09
74466;BME280;62916;50.044;15.938;2023-07-29T04:44:09;98582.17;;;24.58;50.07
74466;BME280;62916;50.044;15.938;2023-07-29T04:46:40;98578.20;;;24.58;50.27
74466;BME280;62916;50.044;15.938;2023-07-29T04:49:11;98575.67;;;24.57;50.39
74466;BME280;62916;50.044;15.938;2023-07-29T04:51:41;98580.88;;;24.58;50.44
74466;BME280;62916;50.044;15.938;2023-07-29T04:54:12;98577.45;;;24.57;50.58
74466;BME280;62916;50.044;15.938;2023-07-29T04:56:43;98576.39;;;24.57;50.70
74466;BME280;62916;50.044;15.938;2023-07-29T04:59:14;98578.84;;;24.57;50.82
74466;BME280;62916;50.044;15.938;2023-07-29T05:01:44;98580.07;;;24.58;50.65
74466;BME280;62916;50.044;15.938;2023-07-29T05:04:15;98584.16;;;24.59;51.01
74466;BME280;62916;50.044;15.938;2023-07-29T05:06:47;98581.91;;;24.60;51.12
74466;BME280;62916;50.044;15.938;2023-07-29T05:09:19;98578.36;;;24.61;51.04
74466;BME280;62916;50.044;15.938;2023-07-29T05:11:50;98577.95;;;24.63;51.29
74466;BME280;62916;50.044;15.938;2023-07-29T05:14:21;98579.16;;;24.64;51.42
74466;BME280;62916;50.044;15.938;2023-07-29T05:16:52;98583.03;;;24.65;51.57
74466;BME280;62916;50.044;15.938;2023-07-29T05:19:23;98579.60;;;24.67;51.47
74466;BME280;62916;50.044;15.938;2023-07-29T05:21:54;98586.31;;;24.69;51.66
74466;BME280;62916;50.044;15.938;2023-07-29T05:24:25;98588.63;;;24.71;51.82
74466;BME280;62916;50.044;15.938;2023-07-29T05:26:58;98587.63;;;24.73;51.80
74466;BME280;62916;50.044;15.938;2023-07-29T05:29:29;98586.23;;;24.75;51.72
74466;BME280;62916;50.044;15.938;2023-07-29T05:32:00;98586.79;;;24.78;51.64
74466;BME280;62916;50.044;15.938;2023-07-29T05:34:31;98587.66;;;24.80;51.90
74466;BME280;62916;50.044;15.938;2023-07-29T05:37:02;98583.89;;;24.81;51.81
74466;BME280;62916;50.044;15.938;2023-07-29T05:39:33;98585.81;;;24.82;51.86
74466;BME280;62916;50.044;15.938;2023-07-29T05:42:05;98586.17;;;24.85;51.84
74466;BME280;62916;50.044;15.938;2023-07-29T05:44:36;98586.48;;;24.87;52.00
74466;BME280;62916;50.044;15.938;2023-07-29T05:47:07;98585.48;;;24.88;51.97
74466;BME280;62916;50.044;15.938;2023-07-29T05:49:38;98588.52;;;24.90;51.91
74466;BME280;62916;50.044;15.938;2023-07-29T05:52:09;98589.26;;;24.92;51.77
74466;BME280;62916;50.044;15.938;2023-07-29T05:54:40;98586.23;;;24.93;51.78
74466;BME280;62916;50.044;15.938;2023-07-29T05:57:12;98590.30;;;24.97;51.73
74466;BME280;62916;50.044;15.938;2023-07-29T05:59:43;98591.38;;;24.98;51.77
74466;BME280;62916;50.044;15.938;2023-07-29T06:02:14;98591.70;;;25.01;51.61
74466;BME280;62916;50.044;15.938;2023-07-29T06:04:45;98588.86;;;25.03;51.51
74466;BME280;62916;50.044;15.938;2023-07-29T06:07:16;98593.34;;;25.05;51.28
74466;BME280;62916;50.044;15.938;2023-07-29T06:09:47;98591.27;;;25.06;51.08
74466;BME280;62916;50.044;15.938;2023-07-29T06:12:18;98590.45;;;25.08;50.81
74466;BME280;62916;50.044;15.938;2023-07-29T06:14:49;98589.83;;;25.09;50.76
74466;BME280;62916;50.044;15.938;2023-07-29T06:17:20;98588.55;;;25.10;50.85
74466;BME280;62916;50.044;15.938;2023-07-29T06:19:51;98590.05;;;25.12;50.71
74466;BME280;62916;50.044;15.938;2023-07-29T06:22:21;98591.30;;;25.12;51.02
74466;BME280;62916;50.044;15.938;2023-07-29T06:24:53;98594.80;;;25.13;50.81
74466;BME280;62916;50.044;15.938;2023-07-29T06:27:24;98598.55;;;25.14;50.91
74466;BME280;62916;50.044;15.938;2023-07-29T06:29:55;98603.45;;;25.16;50.95
74466;BME280;62916;50.044;15.938;2023-07-29T06:32:26;98607.69;;;25.17;50.94
74466;BME280;62916;50.044;15.938;2023-07-29T06:34:57;98610.35;;;25.18;50.85
74466;BME280;62916;50.044;15.938;2023-07-29T06:37:27;98611.75;;;25.20;51.08
74466;BME280;62916;50.044;15.938;2023-07-29T06:40:01;98608.63;;;25.21;51.01
74466;BME280;62916;50.044;15.938;2023-07-29T06:42:32;98608.30;;;25.21;50.90
74466;BME280;62916;50.044;15.938;2023-07-29T06:45:04;98613.31;;;25.23;50.78
74466;BME280;62916;50.044;15.938;2023-07-29T06:47:34;98611.48;;;25.24;50.90
74466;BME280;62916;50.044;15.938;2023-07-29T06:50:07;98611.66;;;25.25;50.85
74466;BME280;62916;50.044;15.938;2023-07-29T06:52:38;98614.21;;;25.26;50.75
74466;BME280;62916;50.044;15.938;2023-07-29T06:55:10;98613.29;;;25.28;50.79
74466;BME280;62916;50.044;15.938;2023-07-29T06:57:41;98612.61;;;25.30;50.66
74466;BME280;62916;50.044;15.938;2023-07-29T07:00:13;98610.80;;;25.32;50.82
74466;BME280;62916;50.044;15.938;2023-07-29T07:02:43;98611.02;;;25.35;50.78
74466;BME280;62916;50.044;15.938;2023-07-29T07:05:15;98610.25;;;25.36;50.55
74466;BME280;62916;50.044;15.938;2023-07-29T07:07:46;98616.04;;;25.38;50.54
74466;BME280;62916;50.044;15.938;2023-07-29T07:10:17;98610.08;;;25.39;50.44
74466;BME280;62916;50.044;15.938;2023-07-29T07:12:48;98611.23;;;25.39;50.53
74466;BME280;62916;50.044;15.938;2023-07-29T07:15:19;98610.35;;;25.40;50.55
74466;BME280;62916;50.044;15.938;2023-07-29T07:17:50;98608.08;;;25.40;50.47
74466;BME280;62916;50.044;15.938;2023-07-29T07:20:21;98604.39;;;25.39;50.21
74466;BME280;62916;50.044;15.938;2023-07-29T07:22:52;98602.45;;;25.39;50.43
74466;BME280;62916;50.044;15.938;2023-07-29T07:25:23;98601.90;;;25.40;50.46
74466;BME280;62916;50.044;15.938;2023-07-29T07:27:54;98599.62;;;25.39;50.49
74466;BME280;62916;50.044;15.938;2023-07-29T07:30:25;98596.42;;;25.38;50.36
74466;BME280;62916;50.044;15.938;2023-07-29T07:32:56;98593.56;;;25.37;50.36
74466;BME280;62916;50.044;15.938;2023-07-29T07:35:27;98588.22;;;25.37;50.08
74466;BME280;62916;50.044;15.938;2023-07-29T07:37:58;98581.34;;;25.38;50.32
74466;BME280;62916;50.044;15.938;2023-07-29T07:40:31;98578.35;;;25.38;50.27
74466;BME280;62916;50.044;15.938;2023-07-29T07:43:02;98580.08;;;25.39;50.34
74466;BME280;62916;50.044;15.938;2023-07-29T07:45:35;98578.31;;;25.40;50.32
74466;BME280;62916;50.044;15.938;2023-07-29T07:48:07;98575.57;;;25.40;50.11
74466;BME280;62916;50.044;15.938;2023-07-29T07:50:39;98576.67;;;25.42;50.43
74466;BME280;62916;50.044;15.938;2023-07-29T07:53:10;98576.64;;;25.44;50.17
74466;BME280;62916;50.044;15.938;2023-07-29T07:55:42;98575.60;;;25.45;50.17
74466;BME280;62916;50.044;15.938;2023-07-29T07:58:13;98573.20;;;25.46;50.09
74466;BME280;62916;50.044;15.938;2023-07-29T08:00:44;98573.05;;;25.47;49.97
74466;BME280;62916;50.044;15.938;2023-07-29T08:03:14;98570.71;;;25.47;49.83
74466;BME280;62916;50.044;15.938;2023-07-29T08:05:45;98563.14;;;25.46;49.84
74466;BME280;62916;50.044;15.938;2023-07-29T08:08:16;98565.20;;;25.47;50.03
74466;BME280;62916;50.044;15.938;2023-07-29T08:10:47;98565.88;;;25.48;49.82
74466;BME280;62916;50.044;15.938;2023-07-29T08:13:18;98565.20;;;25.50;49.69
74466;BME280;62916;50.044;15.938;2023-07-29T08:15:51;98567.53;;;25.52;49.57
74466;BME280;62916;50.044;15.938;2023-07-29T08:18:23;98568.93;;;25.53;49.38
74466;BME280;62916;50.044;15.938;2023-07-29T08:20:55;98567.41;;;25.55;49.44
74466;BME280;62916;50.044;15.938;2023-07-29T08:23:27;98563.50;;;25.54;49.12
74466;BME280;62916;50.044;15.938;2023-07-29T08:26:00;98563.17;;;25.53;49.07
74466;BME280;62916;50.044;15.938;2023-07-29T08:28:32;98567.91;;;25.55;49.29
74466;BME280;62916;50.044;15.938;2023-07-29T08:31:04;98564.19;;;25.56;49.31
74466;BME280;62916;50.044;15.938;2023-07-29T08:33:36;98562.16;;;25.56;49.45
74466;BME280;62916;50.044;15.938;2023-07-29T08:36:07;98559.04;;;25.57;49.48
74466;BME280;62916;50.044;15.938;2023-07-29T08:38:38;98558.65;;;25.58;49.62
74466;BME280;62916;50.044;15.938;2023-07-29T08:41:13;98552.52;;;25.61;49.54
74466;BME280;62916;50.044;15.938;2023-07-29T08:43:49;98550.21;;;25.62;49.54
74466;BME280;62916;50.044;15.938;2023-07-29T08:46:21;98549.30;;;25.62;49.38
74466;BME280;62916;50.044;15.938;2023-07-29T08:48:52;98553.02;;;25.61;49.28
74466;BME280;62916;50.044;15.938;2023-07-29T08:51:24;98549.62;;;25.62;49.33
74466;BME280;62916;50.044;15.938;2023-07-29T08:53:56;98551.60;;;25.63;49.43
74466;BME280;62916;50.044;15.938;2023-07-29T08:56:29;98547.57;;;25.64;49.31
74466;BME280;62916;50.044;15.938;2023-07-29T08:59:00;98545.23;;;25.65;49.38
74466;BME280;62916;50.044;15.938;2023-07-29T09:01:31;98548.50;;;25.66;49.21
74466;BME280;62916;50.044;15.938;2023-07-29T09:04:03;98554.15;;;25.68;49.08
74466;BME280;62916;50.044;15.938;2023-07-29T09:06:34;98554.20;;;25.70;49.12
74466;BME280;62916;50.044;15.938;2023-07-29T09:09:08;98550.92;;;25.69;49.15
74466;BME280;62916;50.044;15.938;2023-07-29T09:11:39;98553.77;;;25.72;49.02
74466;BME280;62916;50.044;15.938;2023-07-29T09:14:11;98547.94;;;25.73;48.92
74466;BME280;62916;50.044;15.938;2023-07-29T09:16:42;98546.73;;;25.73;49.05
74466;BME280;62916;50.044;15.938;2023-07-29T09:19:14;98545.20;;;25.74;48.89
74466;BME280;62916;50.044;15.938;2023-07-29T09:21:47;98538.00;;;25.75;48.77
74466;BME280;62916;50.044;15.938;2023-07-29T09:24:22;98534.35;;;25.75;48.81
74466;BME280;62916;50.044;15.938;2023-07-29T09:26:53;98531.05;;;25.77;48.82
74466;BME280;62916;50.044;15.938;2023-07-29T09:29:27;98529.89;;;25.75;48.67
74466;BME280;62916;50.044;15.938;2023-07-29T09:32:19;98523.48;;;25.76;48.73
74466;BME280;62916;50.044;15.938;2023-07-29T09:34:51;98520.98;;;25.76;48.70
74466;BME280;62916;50.044;15.938;2023-07-29T09:37:23;98517.57;;;25.79;48.77
74466;BME280;62916;50.044;15.938;2023-07-29T09:39:54;98522.46;;;25.80;48.63
74466;BME280;62916;50.044;15.938;2023-07-29T09:42:25;98522.58;;;25.81;48.51
74466;BME280;62916;50.044;15.938;2023-07-29T09:44:56;98528.23;;;25.84;48.62
74466;BME280;62916;50.044;15.938;2023-07-29T09:47:27;98527.20;;;25.84;48.63
74466;BME280;62916;50.044;15.938;2023-07-29T09:50:01;98523.07;;;25.84;48.51
74466;BME280;62916;50.044;15.938;2023-07-29T09:52:32;98524.05;;;25.86;48.33
74466;BME280;62916;50.044;15.938;2023-07-29T09:55:04;98519.92;;;25.86;48.31
74466;BME280;62916;50.044;15.938;2023-07-29T09:57:35;98520.02;;;25.87;48.22
74466;BME280;62916;50.044;15.938;2023-07-29T10:00:10;98524.34;;;25.88;48.24
74466;BME280;62916;50.044;15.938;2023-07-29T10:02:42;98522.48;;;25.88;48.37
74466;BME280;62916;50.044;15.938;2023-07-29T10:05:14;98512.83;;;25.88;48.13
74466;BME280;62916;50.044;15.938;2023-07-29T10:07:46;98510.83;;;25.90;48.37
74466;BME280;62916;50.044;15.938;2023-07-29T10:10:18;98503.48;;;25.91;48.08
74466;BME280;62916;50.044;15.938;2023-07-29T10:12:49;98494.81;;;25.92;48.11
74466;BME280;62916;50.044;15.938;2023-07-29T10:15:22;98492.56;;;25.92;47.79
74466;BME280;62916;50.044;15.938;2023-07-29T10:17:53;98492.74;;;25.93;47.90
74466;BME280;62916;50.044;15.938;2023-07-29T10:20:24;98491.02;;;25.92;47.80
74466;BME280;62916;50.044;15.938;2023-07-29T10:22:58;98481.50;;;25.95;47.65
74466;BME280;62916;50.044;15.938;2023-07-29T10:25:39;98487.50;;;25.99;47.58
74466;BME280;62916;50.044;15.938;2023-07-29T10:28:13;98484.21;;;26.01;47.40
74466;BME280;62916;50.044;15.938;2023-07-29T10:30:46;98492.13;;;26.02;47.68
74466;BME280;62916;50.044;15.938;2023-07-29T10:33:17;98495.52;;;26.05;47.54
74466;BME280;62916;50.044;15.938;2023-07-29T10:35:48;98499.75;;;26.07;47.15
74466;BME280;62916;50.044;15.938;2023-07-29T10:38:20;98500.36;;;26.08;47.18
74466;BME280;62916;50.044;15.938;2023-07-29T10:40:54;98502.23;;;26.09;47.56
74466;BME280;62916;50.044;15.938;2023-07-29T10:43:34;98500.48;;;26.10;47.17
74466;BME280;62916;50.044;15.938;2023-07-29T10:46:18;98500.05;;;26.12;47.29
74466;BME280;62916;50.044;15.938;2023-07-29T10:48:56;98497.15;;;26.17;47.23
74466;BME280;62916;50.044;15.938;2023-07-29T10:51:34;98499.96;;;26.19;47.05
74466;BME280;62916;50.044;15.938;2023-07-29T10:54:11;98490.81;;;26.20;47.01
74466;BME280;62916;50.044;15.938;2023-07-29T10:56:46;98484.51;;;26.21;46.83
74466;BME280;62916;50.044;15.938;2023-07-29T10:59:36;98477.52;;;26.22;46.78
74466;BME280;62916;50.044;15.938;2023-07-29T11:02:15;98472.05;;;26.24;46.95
74466;BME280;62916;50.044;15.938;2023-07-29T11:04:51;98475.84;;;26.26;46.91
74466;BME280;62916;50.044;15.938;2023-07-29T11:07:23;98471.14;;;26.27;46.53
74466;BME280;62916;50.044;15.938;2023-07-29T11:10:03;98465.33;;;26.28;46.89
74466;BME280;62916;50.044;15.938;2023-07-29T11:12:39;98464.48;;;26.30;46.49
74466;BME280;62916;50.044;15.938;2023-07-29T11:15:17;98454.36;;;26.31;46.55
74466;BME280;62916;50.044;15.938;2023-07-29T11:17:50;98463.83;;;26.33;46.57
74466;BME280;62916;50.044;15.938;2023-07-29T11:20:23;98460.11;;;26.33;46.71
74466;BME280;62916;50.044;15.938;2023-07-29T11:22:56;98456.31;;;26.36;46.39
74466;BME280;62916;50.044;15.938;2023-07-29T11:25:29;98449.79;;;26.38;46.42
74466;BME280;62916;50.044;15.938;2023-07-29T11:28:01;98448.44;;;26.40;46.46
74466;BME280;62916;50.044;15.938;2023-07-29T11:30:36;98442.86;;;26.41;46.40
74466;BME280;62916;50.044;15.938;2023-07-29T11:33:07;98438.33;;;26.42;46.21
74466;BME280;62916;50.044;15.938;2023-07-29T11:35:39;98439.06;;;26.42;46.41
74466;BME280;62916;50.044;15.938;2023-07-29T11:38:16;98428.38;;;26.44;46.35
74466;BME280;62916;50.044;15.938;2023-07-29T11:40:57;98425.66;;;26.46;46.25
74466;BME280;62916;50.044;15.938;2023-07-29T11:43:28;98427.63;;;26.49;46.19
74466;BME280;62916;50.044;15.938;2023-07-29T11:46:02;98431.41;;;26.50;46.16
74466;BME280;62916;50.044;15.938;2023-07-29T11:48:34;98421.38;;;26.48;46.09
74466;BME280;62916;50.044;15.938;2023-07-29T11:51:05;98420.50;;;26.53;45.90
74466;BME280;62916;50.044;15.938;2023-07-29T11:53:36;98417.84;;;26.54;45.91
74466;BME280;62916;50.044;15.938;2023-07-29T11:56:07;98414.62;;;26.55;45.81
74466;BME280;62916;50.044;15.938;2023-07-29T11:58:38;98405.29;;;26.56;45.78
74466;BME280;62916;50.044;15.938;2023-07-29T12:01:11;98409.44;;;26.57;46.00
74466;BME280;62916;50.044;15.938;2023-07-29T12:03:43;98399.30;;;26.58;45.58
74466;BME280;62916;50.044;15.938;2023-07-29T12:06:14;98392.25;;;26.60;45.41
74466;BME280;62916;50.044;15.938;2023-07-29T12:08:46;98386.36;;;26.61;45.68
74466;BME280;62916;50.044;15.938;2023-07-29T12:11:17;98380.55;;;26.63;45.56
74466;BME280;62916;50.044;15.938;2023-07-29T12:13:48;98380.11;;;26.66;45.62
74466;BME280;62916;50.044;15.938;2023-07-29T12:16:19;98381.33;;;26.67;45.66
74466;BME280;62916;50.044;15.938;2023-07-29T12:18:51;98377.05;;;26.69;45.57
74466;BME280;62916;50.044;15.938;2023-07-29T12:21:22;98375.29;;;26.69;45.31
74466;BME280;62916;50.044;15.938;2023-07-29T12:23:53;98368.73;;;26.71;45.12
74466;BME280;62916;50.044;15.938;2023-07-29T12:26:30;98366.33;;;26.72;45.31
74466;BME280;62916;50.044;15.938;2023-07-29T12:29:13;98360.98;;;26.73;45.26
74466;BME280;62916;50.044;15.938;2023-07-29T12:31:44;98361.88;;;26.73;45.24
74466;BME280;62916;50.044;15.938;2023-07-29T12:34:20;98361.81;;;26.74;45.27
74466;BME280;62916;50.044;15.938;2023-07-29T12:36:52;98362.49;;;26.76;45.20
74466;BME280;62916;50.044;15.938;2023-07-29T12:39:26;98362.64;;;26.75;45.23
74466;BME280;62916;50.044;15.938;2023-07-29T12:41:59;98369.93;;;26.79;45.17
74466;BME280;62916;50.044;15.938;2023-07-29T12:44:33;98367.52;;;26.81;45.26
74466;BME280;62916;50.044;15.938;2023-07-29T12:47:06;98371.58;;;26.81;45.07
74466;BME280;62916;50.044;15.938;2023-07-29T12:49:38;98367.63;;;26.82;45.19
74466;BME280;62916;50.044;15.938;2023-07-29T12:52:09;98366.10;;;26.83;44.97
74466;BME280;62916;50.044;15.938;2023-07-29T12:54:41;98363.09;;;26.83;45.06
74466;BME280;62916;50.044;15.938;2023-07-29T13:09:17;98436.38;;;27.45;43.68
74466;BME280;62916;50.044;15.938;2023-07-29T13:11:48;98501.87;;;27.45;44.02
74466;BME280;62916;50.044;15.938;2023-07-29T13:14:18;98535.73;;;27.37;44.18
74466;BME280;62916;50.044;15.938;2023-07-29T13:16:49;98554.67;;;27.27;44.97
74466;BME280;62916;50.044;15.938;2023-07-29T13:19:21;98556.05;;;27.18;45.25
74466;BME280;62916;50.044;15.938;2023-07-29T13:21:52;98547.39;;;27.11;45.47
74466;BME280;62916;50.044;15.938;2023-07-29T13:24:23;98533.50;;;27.07;45.64
74466;BME280;62916;50.044;15.938;2023-07-29T13:26:55;98533.42;;;27.03;45.92